Time;durP1;ratioP1;P1;durP2;ratioP2;P2;SDS_P1;SDS_P2;PMS_P1;PMS_P2;Temp;Humidity;BMP_temperature;BMP_pressure;BME280_temperature;BME280_humidity;BME280_pressure;Samples;Min_cycle;Max_cycle;Signal;HPM_P1;HPM_P2
2020/12/26 00:00:25;;;;;;;4.53;2.53;;;3.00;1.00;;;;;;4982653;28;20315;-73
2020/12/26 00:02:51;;;;;;;3.47;2.90;;;2.90;1.00;;;;;;4983225;28;20671;-74
2020/12/26 00:05:17;;;;;;;5.60;3.33;;;2.90;1.00;;;;;;4980169;28;20290;-73
2020/12/26 00:07:43;;;;;;;3.33;2.55;;;2.90;1.00;;;;;;4984455;28;20251;-74
2020/12/26 00:10:10;;;;;;;4.53;3.00;;;2.90;1.00;;;;;;4979461;28;20251;-73
2020/12/26 00:12:37;;;;;;;3.40;2.58;;;2.90;1.00;;;;;;4982978;28;20314;-74
2020/12/26 00:15:03;;;;;;;4.20;2.67;;;2.90;1.00;;;;;;4980298;28;20244;-74
2020/12/26 00:17:29;;;;;;;5.57;3.30;;;2.90;1.00;;;;;;4987368;28;20304;-73
2020/12/26 00:19:56;;;;;;;4.72;2.60;;;2.90;1.00;;;;;;4980703;28;20275;-74
2020/12/26 00:22:22;;;;;;;7.05;2.53;;;3.00;1.00;;;;;;4980321;28;20223;-74
2020/12/26 00:24:48;;;;;;;6.15;2.67;;;2.90;1.00;;;;;;4982753;28;20220;-72
2020/12/26 00:27:15;;;;;;;5.93;2.88;;;2.80;1.00;;;;;;4980611;28;20767;-74
2020/12/26 00:29:41;;;;;;;4.78;2.70;;;2.80;1.00;;;;;;4979849;28;20235;-73
2020/12/26 00:32:08;;;;;;;4.40;2.80;;;2.80;1.00;;;;;;4983454;28;20266;-74
2020/12/26 00:34:34;;;;;;;3.97;2.28;;;2.80;1.00;;;;;;4995407;28;20231;-73
2020/12/26 00:37:00;;;;;;;6.55;3.08;;;2.80;1.00;;;;;;4991826;28;20230;-73
2020/12/26 00:39:26;;;;;;;4.70;3.17;;;2.80;1.00;;;;;;4991830;28;20227;-73
2020/12/26 00:41:53;;;;;;;6.15;2.60;;;2.70;1.00;;;;;;4977627;28;20290;-73
2020/12/26 00:44:20;;;;;;;5.32;2.92;;;2.80;1.00;;;;;;4986560;28;21079;-73
2020/12/26 00:46:47;;;;;;;8.75;3.35;;;2.70;1.00;;;;;;4981130;28;20286;-73
2020/12/26 00:49:14;;;;;;;5.18;2.83;;;2.70;1.00;;;;;;4974522;28;20703;-73
2020/12/26 00:51:40;;;;;;;5.32;2.47;;;2.70;1.00;;;;;;4982955;28;21070;-73
2020/12/26 00:54:06;;;;;;;4.35;2.30;;;2.70;1.00;;;;;;4979554;28;20567;-74
2020/12/26 00:56:36;;;;;;;4.25;2.63;;;2.70;1.00;;;;;;4992524;28;20319;-74
2020/12/26 00:59:02;;;;;;;5.60;3.10;;;2.70;1.00;;;;;;4990365;28;20236;-74
2020/12/26 01:01:29;;;;;;;4.85;2.50;;;2.70;1.00;;;;;;4987553;28;20327;-74
2020/12/26 01:03:55;;;;;;;4.40;2.65;;;2.70;1.00;;;;;;4975818;28;20222;-74
2020/12/26 01:06:21;;;;;;;2.55;2.30;;;2.60;1.00;;;;;;4977651;28;20227;-74
2020/12/26 01:08:47;;;;;;;4.57;2.90;;;2.60;1.00;;;;;;4980020;28;20239;-73
2020/12/26 01:11:14;;;;;;;2.83;2.22;;;2.60;1.00;;;;;;4985698;28;20227;-74
2020/12/26 01:13:40;;;;;;;5.35;3.65;;;2.60;1.00;;;;;;4982956;28;20302;-74
2020/12/26 01:16:06;;;;;;;5.00;2.80;;;2.60;1.00;;;;;;4981893;28;20235;-74
2020/12/26 01:18:34;;;;;;;5.65;3.33;;;2.60;1.00;;;;;;4987805;28;20235;-74
2020/12/26 01:21:04;;;;;;;5.97;3.05;;;2.60;1.00;;;;;;4998168;28;20216;-74
2020/12/26 01:23:30;;;;;;;4.85;2.78;;;2.60;1.00;;;;;;4980654;28;20224;-74
2020/12/26 01:25:57;;;;;;;5.82;2.60;;;2.60;1.00;;;;;;4981645;28;20314;-75
2020/12/26 01:28:23;;;;;;;5.68;3.33;;;2.60;1.00;;;;;;4978433;28;20314;-74
2020/12/26 01:30:49;;;;;;;5.45;2.85;;;2.60;1.00;;;;;;4980849;28;20294;-74
2020/12/26 01:33:15;;;;;;;4.70;3.00;;;2.60;1.00;;;;;;4977226;28;20714;-74
2020/12/26 01:35:42;;;;;;;4.40;3.17;;;2.60;1.00;;;;;;4985578;28;20296;-74
2020/12/26 01:38:08;;;;;;;5.22;3.08;;;2.50;1.00;;;;;;4978647;28;20223;-74
2020/12/26 01:40:35;;;;;;;3.38;2.80;;;2.50;1.00;;;;;;4971696;28;21052;-74
2020/12/26 01:43:02;;;;;;;4.93;3.47;;;2.50;1.00;;;;;;4977270;28;20635;-74
2020/12/26 01:45:28;;;;;;;4.03;2.45;;;2.50;1.00;;;;;;4979348;28;20318;-75
2020/12/26 01:47:55;;;;;;;8.30;3.20;;;2.50;1.00;;;;;;4980780;28;20977;-74
2020/12/26 01:50:22;;;;;;;6.55;3.08;;;2.50;1.00;;;;;;4981574;28;20749;-74
2020/12/26 01:52:50;;;;;;;5.63;2.85;;;2.50;1.00;;;;;;4984353;28;20230;-75
2020/12/26 01:55:17;;;;;;;3.05;2.63;;;2.50;1.00;;;;;;4980076;28;20810;-74
2020/12/26 01:57:51;;;;;;;5.70;2.38;;;2.50;1.00;;;;;;4982200;28;20266;-74
2020/12/26 02:00:18;;;;;;;4.45;2.30;;;2.40;1.00;;;;;;4984882;28;20743;-74
2020/12/26 02:02:44;;;;;;;3.80;3.28;;;2.50;1.00;;;;;;4989347;28;20263;-73
2020/12/26 02:05:10;;;;;;;4.50;2.67;;;2.50;1.00;;;;;;4999207;28;20244;-74
2020/12/26 02:07:37;;;;;;;3.90;3.45;;;2.50;1.00;;;;;;4999190;28;20263;-73
2020/12/26 02:10:04;;;;;;;3.65;2.50;;;2.50;1.00;;;;;;4993070;28;20227;-73
2020/12/26 02:12:30;;;;;;;5.05;3.42;;;2.50;1.00;;;;;;4989523;28;20401;-74
2020/12/26 02:14:56;;;;;;;3.67;2.50;;;2.50;1.00;;;;;;4985142;28;20326;-73
2020/12/26 02:17:27;;;;;;;3.60;2.80;;;2.50;1.00;;;;;;4980043;28;20228;-73
2020/12/26 02:19:54;;;;;;;5.32;4.20;;;2.50;1.00;;;;;;4982209;28;20230;-73
2020/12/26 02:22:20;;;;;;;3.67;2.80;;;2.50;1.00;;;;;;4979364;28;20255;-73
2020/12/26 02:24:47;;;;;;;5.50;2.97;;;2.50;1.00;;;;;;4982219;28;20319;-74
2020/12/26 02:27:13;;;;;;;3.65;2.40;;;2.50;1.00;;;;;;4981080;28;20258;-73
2020/12/26 02:29:40;;;;;;;3.10;2.50;;;2.50;1.00;;;;;;4983751;28;20314;-74
2020/12/26 02:32:07;;;;;;;4.90;2.85;;;2.50;1.00;;;;;;4981405;28;20310;-74
2020/12/26 02:34:33;;;;;;;4.25;2.25;;;2.50;1.00;;;;;;4984721;28;20307;-74
2020/12/26 02:36:59;;;;;;;4.60;2.88;;;2.50;1.00;;;;;;4988292;28;20319;-75
2020/12/26 02:39:25;;;;;;;5.43;2.42;;;2.50;1.00;;;;;;4981110;28;20315;-74
2020/12/26 02:41:52;;;;;;;4.18;2.80;;;2.50;1.00;;;;;;4990433;28;20367;-73
2020/12/26 02:44:19;;;;;;;4.50;3.28;;;2.50;1.00;;;;;;4979029;28;20333;-74
2020/12/26 02:46:49;;;;;;;4.35;2.50;;;2.50;1.00;;;;;;4987139;28;20215;-74
2020/12/26 02:49:15;;;;;;;3.47;3.17;;;2.40;1.00;;;;;;4998449;28;20223;-74
2020/12/26 02:51:42;;;;;;;4.70;2.85;;;2.40;1.00;;;;;;5002357;28;20753;-74
2020/12/26 02:54:11;;;;;;;4.82;2.67;;;2.40;1.00;;;;;;4994451;28;20289;-75
2020/12/26 02:56:38;;;;;;;7.63;3.70;;;2.40;1.00;;;;;;4985938;28;21115;-75
2020/12/26 02:59:06;;;;;;;4.93;3.15;;;2.40;1.00;;;;;;4987895;28;20226;-75
2020/12/26 03:01:32;;;;;;;4.10;2.58;;;2.40;1.00;;;;;;4991617;28;20310;-74
2020/12/26 03:03:58;;;;;;;5.70;2.13;;;2.40;1.00;;;;;;4995122;28;20247;-74
2020/12/26 03:06:24;;;;;;;4.65;2.83;;;2.40;1.00;;;;;;4989544;28;22623;-74
2020/12/26 03:08:50;;;;;;;3.65;2.65;;;2.40;1.00;;;;;;4989308;28;20318;-74
2020/12/26 03:11:17;;;;;;;5.57;2.47;;;2.40;1.00;;;;;;4984352;28;20768;-75
2020/12/26 03:13:43;;;;;;;5.38;2.58;;;2.40;1.00;;;;;;4989973;28;20722;-74
2020/12/26 03:16:10;;;;;;;3.95;2.85;;;2.40;1.00;;;;;;4992145;28;20234;-74
2020/12/26 03:18:36;;;;;;;4.65;2.85;;;2.40;1.00;;;;;;4993578;28;20280;-74
2020/12/26 03:21:03;;;;;;;4.43;2.58;;;2.40;1.00;;;;;;4994294;28;20995;-74
2020/12/26 03:23:29;;;;;;;4.18;2.65;;;2.30;1.00;;;;;;4994005;28;20223;-74
2020/12/26 03:25:55;;;;;;;4.25;2.45;;;2.30;1.00;;;;;;4993171;28;20569;-74
2020/12/26 03:28:21;;;;;;;3.03;2.60;;;2.30;1.00;;;;;;4995631;28;20285;-75
2020/12/26 03:30:47;;;;;;;3.33;2.08;;;2.40;1.00;;;;;;4989729;28;20840;-74
2020/12/26 03:33:14;;;;;;;3.85;2.17;;;2.40;1.00;;;;;;4989021;28;20232;-75
2020/12/26 03:35:41;;;;;;;4.82;2.22;;;2.40;1.00;;;;;;4987835;28;20741;-74
2020/12/26 03:38:07;;;;;;;4.20;2.85;;;2.40;1.00;;;;;;4976501;28;21110;-74
2020/12/26 03:40:34;;;;;;;2.92;2.25;;;2.40;1.00;;;;;;4978995;28;20230;-74
2020/12/26 03:43:00;;;;;;;3.35;2.25;;;2.40;1.00;;;;;;4981159;28;20252;-75
2020/12/26 03:45:26;;;;;;;3.40;2.15;;;2.40;1.00;;;;;;4986761;28;20227;-74
2020/12/26 03:47:52;;;;;;;3.25;2.50;;;2.40;1.00;;;;;;4985241;28;20257;-74
2020/12/26 03:50:19;;;;;;;4.93;2.25;;;2.40;1.00;;;;;;4978666;28;20224;-74
2020/12/26 03:52:45;;;;;;;8.40;2.58;;;2.40;1.00;;;;;;4984237;28;20231;-73
2020/12/26 03:55:12;;;;;;;10.00;2.42;;;2.40;1.00;;;;;;4979691;28;20242;-74
2020/12/26 03:57:39;;;;;;;8.00;2.28;;;2.40;1.00;;;;;;4986378;28;20259;-75
2020/12/26 04:00:05;;;;;;;2.63;2.40;;;2.40;1.00;;;;;;4987513;28;20254;-74
2020/12/26 04:02:31;;;;;;;1.90;1.70;;;2.30;1.00;;;;;;4982615;28;20238;-75
2020/12/26 04:04:58;;;;;;;4.18;3.00;;;2.40;1.00;;;;;;4985795;28;20220;-72
2020/12/26 04:07:25;;;;;;;3.22;1.98;;;2.40;1.00;;;;;;4983799;28;20228;-74
2020/12/26 04:09:51;;;;;;;1.77;1.45;;;2.30;1.00;;;;;;4990404;28;20293;-73
2020/12/26 04:12:17;;;;;;;3.38;1.80;;;2.30;1.00;;;;;;4982519;28;20227;-73
2020/12/26 04:14:43;;;;;;;2.10;1.90;;;2.30;1.00;;;;;;4977278;28;20238;-75
2020/12/26 04:17:09;;;;;;;4.13;2.15;;;2.30;1.00;;;;;;4982548;28;20321;-74
2020/12/26 04:19:35;;;;;;;4.80;1.85;;;2.30;1.00;;;;;;4987164;28;20230;-74
2020/12/26 04:22:02;;;;;;;3.30;1.90;;;2.30;1.00;;;;;;4981946;28;20269;-74
2020/12/26 04:24:29;;;;;;;4.72;2.25;;;2.30;1.00;;;;;;4988004;28;20880;-74
2020/12/26 04:26:55;;;;;;;3.00;1.70;;;2.30;1.00;;;;;;4990079;28;20254;-74
2020/12/26 04:29:22;;;;;;;3.28;2.00;;;2.30;1.00;;;;;;4986222;28;20320;-74
2020/12/26 04:31:48;;;;;;;2.20;1.40;;;2.30;1.00;;;;;;4996412;28;20242;-74
2020/12/26 04:34:14;;;;;;;3.03;2.28;;;2.30;1.00;;;;;;4989052;28;20341;-74
2020/12/26 04:36:40;;;;;;;3.10;2.30;;;2.30;1.00;;;;;;4988909;28;20250;-74
2020/12/26 04:39:07;;;;;;;4.93;1.83;;;2.30;1.00;;;;;;4983321;28;20447;-74
2020/12/26 04:41:34;;;;;;;5.00;3.05;;;2.30;1.00;;;;;;4988194;28;20235;-74
2020/12/26 04:44:01;;;;;;;3.25;2.00;;;2.30;1.00;;;;;;4979199;28;20981;-74
2020/12/26 04:46:28;;;;;;;3.28;2.20;;;2.30;1.00;;;;;;4985331;28;20223;-74
2020/12/26 04:49:04;;;;;;;2.22;1.65;;;2.30;1.00;;;;;;4977058;28;20588;-73
2020/12/26 04:51:33;;;;;;;4.55;1.98;;;2.30;1.00;;;;;;4982150;28;21029;-74
2020/12/26 04:54:09;;;;;;;3.75;2.67;;;2.30;1.00;;;;;;4985417;28;20243;-73
2020/12/26 04:56:41;;;;;;;2.13;1.90;;;2.40;1.00;;;;;;4988622;28;20231;-74
2020/12/26 04:59:08;;;;;;;5.65;2.20;;;2.40;1.00;;;;;;4984519;28;20228;-74
2020/12/26 05:01:37;;;;;;;2.92;1.90;;;2.40;1.00;;;;;;4982764;28;20232;-73
2020/12/26 05:04:03;;;;;;;3.83;2.17;;;2.40;1.00;;;;;;4983520;28;20389;-73
2020/12/26 05:06:31;;;;;;;5.70;1.85;;;2.40;1.00;;;;;;4982151;28;21489;-73
2020/12/26 05:08:58;;;;;;;2.40;1.52;;;2.40;1.00;;;;;;4984170;28;20220;-73
2020/12/26 05:11:24;;;;;;;2.17;1.27;;;2.30;1.00;;;;;;4993476;28;20219;-73
2020/12/26 05:13:51;;;;;;;3.63;2.15;;;2.30;1.00;;;;;;4991334;28;20318;-73
2020/12/26 05:16:18;;;;;;;2.33;1.60;;;2.30;1.00;;;;;;4984441;28;20262;-74
2020/12/26 05:18:47;;;;;;;7.30;2.25;;;2.40;1.00;;;;;;4986200;28;20227;-74
2020/12/26 05:21:23;;;;;;;3.80;2.67;;;2.40;1.00;;;;;;4987257;28;20262;-73
2020/12/26 05:24:02;;;;;;;4.28;2.00;;;2.40;1.00;;;;;;4992378;28;20228;-73
2020/12/26 05:26:30;;;;;;;5.28;2.10;;;2.40;1.00;;;;;;4995090;28;20286;-73
2020/12/26 05:29:00;;;;;;;1.80;1.70;;;2.40;1.00;;;;;;4998830;28;20291;-74
2020/12/26 05:31:45;;;;;;;3.70;1.77;;;2.40;1.00;;;;;;4999046;28;20255;-73
2020/12/26 05:34:12;;;;;;;4.78;2.47;;;2.30;1.00;;;;;;4989158;28;20263;-74
2020/12/26 05:36:38;;;;;;;4.25;2.20;;;2.20;1.00;;;;;;4983051;28;20231;-75
2020/12/26 05:39:05;;;;;;;3.22;2.53;;;2.10;1.00;;;;;;4986990;28;20313;-74
2020/12/26 05:41:31;;;;;;;3.50;1.75;;;2.00;1.00;;;;;;4981024;28;20289;-73
2020/12/26 05:43:59;;;;;;;2.53;1.77;;;2.00;1.00;;;;;;4980863;28;20240;-73
2020/12/26 05:46:25;;;;;;;4.07;2.15;;;2.00;1.00;;;;;;4980491;28;20246;-74
2020/12/26 05:48:51;;;;;;;4.78;2.13;;;1.90;1.00;;;;;;4977467;28;20347;-73
2020/12/26 05:51:24;;;;;;;4.30;2.35;;;1.80;1.00;;;;;;4979372;28;20384;-75
2020/12/26 05:53:52;;;;;;;2.25;1.48;;;1.70;1.00;;;;;;4979391;28;20325;-73
2020/12/26 05:56:19;;;;;;;2.50;1.98;;;1.60;1.00;;;;;;4981900;28;20702;-73
2020/12/26 05:58:45;;;;;;;3.70;1.90;;;1.50;1.00;;;;;;4982602;28;20224;-73
2020/12/26 06:01:14;;;;;;;3.85;2.00;;;1.50;1.00;;;;;;4984925;28;20226;-75
2020/12/26 06:03:40;;;;;;;2.50;1.92;;;1.40;1.00;;;;;;4981087;28;20260;-73
2020/12/26 06:06:07;;;;;;;4.50;2.63;;;1.40;1.00;;;;;;4987994;28;20653;-73
2020/12/26 06:08:33;;;;;;;2.88;2.00;;;1.30;1.00;;;;;;4982555;28;20257;-73
2020/12/26 06:11:01;;;;;;;1.60;1.50;;;1.30;1.00;;;;;;4980136;28;20232;-74
2020/12/26 06:13:29;;;;;;;2.70;1.67;;;1.20;1.00;;;;;;4980600;28;20261;-73
2020/12/26 06:15:56;;;;;;;2.13;1.85;;;1.20;1.00;;;;;;4979111;28;20315;-73
2020/12/26 06:18:25;;;;;;;5.13;2.28;;;1.10;1.00;;;;;;4978980;28;20227;-73
2020/12/26 06:20:53;;;;;;;3.60;2.63;;;1.10;1.00;;;;;;4979661;28;20738;-74
2020/12/26 06:23:21;;;;;;;4.05;3.38;;;1.00;1.00;;;;;;4983346;28;20315;-74
2020/12/26 06:25:50;;;;;;;6.07;3.10;;;1.00;1.00;;;;;;4982495;28;20238;-73
2020/12/26 06:28:28;;;;;;;5.70;3.22;;;0.90;1.00;;;;;;4990612;28;20223;-74
2020/12/26 06:30:58;;;;;;;4.47;2.35;;;0.90;1.00;;;;;;4980530;28;20231;-72
2020/12/26 06:33:26;;;;;;;4.00;2.50;;;0.90;1.00;;;;;;4987308;28;20758;-74
2020/12/26 06:35:53;;;;;;;5.93;3.72;;;0.90;1.00;;;;;;4982071;28;21572;-74
2020/12/26 06:38:23;;;;;;;4.95;3.53;;;0.80;1.00;;;;;;4985136;28;20227;-74
2020/12/26 06:40:51;;;;;;;4.82;4.28;;;0.80;1.00;;;;;;4983239;28;20236;-74
2020/12/26 06:43:47;;;;;;;5.70;3.95;;;0.80;1.00;;;;;;4984931;28;20228;-74
2020/12/26 06:46:39;;;;;;;4.30;3.45;;;0.80;1.00;;;;;;4982008;28;20228;-74
2020/12/26 06:49:22;;;;;;;5.28;4.28;;;0.80;1.00;;;;;;4979601;28;20283;-74
2020/12/26 06:51:49;;;;;;;6.18;4.18;;;0.70;1.00;;;;;;4986706;28;20233;-74
2020/12/26 06:54:35;;;;;;;6.53;5.05;;;0.60;1.00;;;;;;4985723;28;20726;-74
2020/12/26 06:57:01;;;;;;;7.50;5.78;;;0.60;1.00;;;;;;4989273;28;20265;-74
2020/12/26 06:59:32;;;;;;;13.55;7.40;;;0.60;1.00;;;;;;4982153;28;20243;-74
2020/12/26 07:02:08;;;;;;;7.80;6.78;;;0.50;1.00;;;;;;4986652;28;20224;-74
2020/12/26 07:04:39;;;;;;;9.85;6.95;;;0.50;1.00;;;;;;4981623;28;20228;-74
2020/12/26 07:07:06;;;;;;;13.05;8.45;;;0.40;1.00;;;;;;4986453;28;20306;-74
2020/12/26 07:09:47;;;;;;;10.13;7.85;;;0.40;1.00;;;;;;4980593;28;20661;-74
2020/12/26 07:12:13;;;;;;;9.75;8.75;;;0.50;1.00;;;;;;4982503;28;20238;-74
2020/12/26 07:14:40;;;;;;;14.57;8.55;;;0.50;1.00;;;;;;4982505;28;20272;-74
2020/12/26 07:17:23;;;;;;;12.50;9.73;;;0.50;1.00;;;;;;4988894;28;20219;-73
2020/12/26 07:19:52;;;;;;;11.98;9.65;;;0.50;1.00;;;;;;4986172;28;20243;-73
2020/12/26 07:22:21;;;;;;;11.50;8.23;;;0.50;1.00;;;;;;4986182;28;21206;-73
2020/12/26 07:24:48;;;;;;;14.18;9.82;;;0.50;1.00;;;;;;4989543;28;20238;-73
2020/12/26 07:27:20;;;;;;;11.70;9.32;;;0.60;1.00;;;;;;4983933;28;21616;-73
2020/12/26 07:30:05;;;;;;;11.10;8.90;;;0.60;1.00;;;;;;4989680;28;21129;-73
2020/12/26 07:32:57;;;;;;;10.82;9.02;;;0.60;1.00;;;;;;4980955;28;20255;-73
2020/12/26 07:35:39;;;;;;;13.07;9.18;;;0.60;1.00;;;;;;4982729;28;21481;-73
2020/12/26 07:38:13;;;;;;;12.73;9.20;;;0.60;1.00;;;;;;4980389;28;20262;-73
2020/12/26 07:40:41;;;;;;;10.27;8.18;;;0.60;1.00;;;;;;4985676;28;20318;-73
2020/12/26 07:43:09;;;;;;;16.95;11.27;;;0.70;1.00;;;;;;4983331;28;20223;-73
2020/12/26 07:45:37;;;;;;;13.68;9.75;;;0.80;1.00;;;;;;4993122;28;20224;-74
2020/12/26 07:48:04;;;;;;;16.65;13.85;;;0.70;1.00;;;;;;4978445;28;20748;-74
2020/12/26 07:50:32;;;;;;;19.75;14.65;;;0.70;1.00;;;;;;4985084;28;20262;-73
2020/12/26 07:53:00;;;;;;;14.82;11.55;;;0.80;1.00;;;;;;4985709;28;20326;-73
2020/12/26 07:55:29;;;;;;;15.77;11.15;;;0.80;1.00;;;;;;4982894;28;20305;-73
2020/12/26 07:58:06;;;;;;;16.85;12.00;;;0.80;1.00;;;;;;4982037;28;20230;-73
2020/12/26 08:00:33;;;;;;;16.13;11.57;;;0.80;1.00;;;;;;4981007;28;20310;-74
2020/12/26 08:03:01;;;;;;;18.20;12.70;;;0.80;1.00;;;;;;4986098;28;20992;-74
2020/12/26 08:05:29;;;;;;;24.48;12.73;;;0.80;1.00;;;;;;4984099;28;20327;-73
2020/12/26 08:07:55;;;;;;;18.35;13.13;;;0.80;1.00;;;;;;4984985;28;20275;-73
2020/12/26 08:10:23;;;;;;;18.00;12.43;;;0.80;1.00;;;;;;4982375;28;20219;-74
2020/12/26 08:12:51;;;;;;;23.88;14.85;;;0.80;1.00;;;;;;4985343;28;20306;-74
2020/12/26 08:15:23;;;;;;;19.38;13.57;;;0.80;1.00;;;;;;4977299;28;20318;-74
2020/12/26 08:17:53;;;;;;;19.45;14.20;;;0.80;1.00;;;;;;4980227;28;20793;-74
2020/12/26 08:20:20;;;;;;;19.48;13.35;;;0.80;1.00;;;;;;4977823;28;20226;-74
2020/12/26 08:22:47;;;;;;;23.00;14.20;;;0.90;1.00;;;;;;4981526;28;20231;-74
2020/12/26 08:25:14;;;;;;;24.08;16.52;;;0.90;1.00;;;;;;4984376;28;20808;-74
2020/12/26 08:27:42;;;;;;;19.63;13.55;;;1.00;1.00;;;;;;4978861;28;20302;-74
2020/12/26 08:30:11;;;;;;;21.00;15.30;;;1.10;1.00;;;;;;4979280;28;20228;-75
2020/12/26 08:32:50;;;;;;;19.98;12.52;;;1.10;1.00;;;;;;4980883;28;20306;-74
2020/12/26 08:35:18;;;;;;;19.23;13.38;;;1.10;1.00;;;;;;4980691;28;20227;-73
2020/12/26 08:37:46;;;;;;;17.42;13.27;;;1.10;1.00;;;;;;4989841;28;20223;-74
2020/12/26 08:40:15;;;;;;;22.65;13.98;;;1.20;1.00;;;;;;4996140;28;20246;-73
2020/12/26 08:42:43;;;;;;;19.83;12.18;;;1.20;1.00;;;;;;4998861;28;20247;-73
2020/12/26 08:45:26;;;;;;;18.67;12.75;;;1.30;1.00;;;;;;4991848;28;20250;-74
2020/12/26 08:47:52;;;;;;;19.17;13.57;;;1.40;1.00;;;;;;4980896;28;20228;-74
2020/12/26 08:50:20;;;;;;;18.25;13.98;;;1.40;1.00;;;;;;4974156;28;20227;-74
2020/12/26 08:52:47;;;;;;;24.10;14.40;;;1.30;1.00;;;;;;4976951;28;20230;-74
2020/12/26 08:55:13;;;;;;;22.00;14.00;;;1.40;1.00;;;;;;4982875;28;20231;-74
2020/12/26 08:57:40;;;;;;;20.13;13.50;;;1.40;1.00;;;;;;4985988;28;20222;-75
2020/12/26 09:00:17;;;;;;;21.63;13.30;;;1.40;1.00;;;;;;4986416;28;20227;-74
2020/12/26 09:02:47;;;;;;;17.83;13.20;;;1.40;1.00;;;;;;4981350;28;20278;-74
2020/12/26 09:05:25;;;;;;;18.00;12.43;;;1.40;1.00;;;;;;4986823;28;20244;-74
2020/12/26 09:08:06;;;;;;;24.63;15.15;;;1.50;1.00;;;;;;4997529;28;20287;-74
2020/12/26 09:10:34;;;;;;;24.15;14.65;;;1.50;1.00;;;;;;5003490;28;20235;-74
2020/12/26 09:13:02;;;;;;;19.38;15.20;;;1.60;1.00;;;;;;5003237;28;20233;-75
2020/12/26 09:15:48;;;;;;;21.30;14.23;;;1.60;1.00;;;;;;4990771;28;20356;-74
2020/12/26 09:18:17;;;;;;;19.58;12.90;;;1.70;1.00;;;;;;4983080;28;20227;-74
2020/12/26 09:20:51;;;;;;;25.42;15.15;;;1.70;1.00;;;;;;4983945;28;20824;-75
2020/12/26 09:23:18;;;;;;;24.70;16.83;;;1.80;1.00;;;;;;4996288;28;20231;-74
2020/12/26 09:25:45;;;;;;;21.33;14.40;;;1.90;1.00;;;;;;4991809;28;20242;-74
2020/12/26 09:28:11;;;;;;;21.58;14.75;;;2.00;1.00;;;;;;4980881;28;21030;-74
2020/12/26 09:30:38;;;;;;;20.08;14.00;;;2.20;1.00;;;;;;4980141;28;20232;-73
2020/12/26 09:33:05;;;;;;;21.27;14.02;;;2.20;1.00;;;;;;4978570;28;20234;-74
2020/12/26 09:35:31;;;;;;;23.40;13.73;;;2.40;1.00;;;;;;4978328;28;20281;-74
2020/12/26 09:37:58;;;;;;;22.00;15.13;;;2.40;1.00;;;;;;4981871;28;20698;-73
2020/12/26 09:40:29;;;;;;;20.33;14.10;;;2.40;1.00;;;;;;4981928;28;20228;-72
2020/12/26 09:42:56;;;;;;;21.15;15.05;;;2.40;1.00;;;;;;4943095;28;20283;-75
2020/12/26 09:45:22;;;;;;;22.33;15.60;;;2.50;1.00;;;;;;4972858;28;20235;-73
2020/12/26 09:47:50;;;;;;;19.58;14.15;;;2.50;1.00;;;;;;4965327;28;21010;-73
2020/12/26 09:50:16;;;;;;;21.15;15.48;;;2.50;1.00;;;;;;4977233;28;20223;-73
2020/12/26 09:52:43;;;;;;;21.38;14.52;;;2.40;1.00;;;;;;4957164;28;20289;-74
2020/12/26 09:55:11;;;;;;;22.05;15.20;;;2.50;1.00;;;;;;4982874;28;20282;-74
2020/12/26 09:57:38;;;;;;;23.90;14.85;;;2.60;1.00;;;;;;4962413;28;20769;-74
2020/12/26 10:00:06;;;;;;;17.90;13.68;;;2.70;1.00;;;;;;4981307;28;20322;-72
2020/12/26 10:02:32;;;;;;;19.50;13.63;;;2.70;1.00;;;;;;4957648;28;20224;-74
2020/12/26 10:04:59;;;;;;;20.75;13.65;;;2.80;1.00;;;;;;4980222;28;20236;-74
2020/12/26 10:07:25;;;;;;;18.48;13.75;;;2.80;1.00;;;;;;4962869;28;20227;-74
2020/12/26 10:09:52;;;;;;;21.42;14.52;;;2.70;1.00;;;;;;4980431;28;20274;-73
2020/12/26 10:12:18;;;;;;;19.60;13.75;;;2.70;1.00;;;;;;4958870;28;20254;-74
2020/12/26 10:14:44;;;;;;;17.83;14.25;;;2.70;1.00;;;;;;4982880;28;21185;-74
2020/12/26 10:17:11;;;;;;;15.82;14.23;;;2.70;1.00;;;;;;4980565;28;20215;-73
2020/12/26 10:19:37;;;;;;;18.25;13.75;;;2.70;1.00;;;;;;4964462;28;20618;-74
2020/12/26 10:22:04;;;;;;;20.30;13.60;;;2.70;1.00;;;;;;4985112;28;20615;-76
2020/12/26 10:24:30;;;;;;;18.10;13.82;;;2.70;1.00;;;;;;4963697;28;20240;-74
2020/12/26 10:26:56;;;;;;;19.27;14.90;;;2.60;1.00;;;;;;4979796;28;20338;-74
2020/12/26 10:29:22;;;;;;;15.20;12.27;;;2.50;1.00;;;;;;4963515;28;20314;-74
2020/12/26 10:31:48;;;;;;;15.50;12.73;;;2.50;1.00;;;;;;4985685;28;20229;-75
2020/12/26 10:34:15;;;;;;;16.95;12.40;;;2.50;1.00;;;;;;4974933;28;20274;-74
2020/12/26 10:36:42;;;;;;;17.42;12.85;;;2.50;1.00;;;;;;5001118;28;20263;-74
2020/12/26 10:39:10;;;;;;;16.00;11.93;;;2.60;1.00;;;;;;4989243;28;20246;-73
2020/12/26 10:41:36;;;;;;;20.25;13.43;;;2.60;1.00;;;;;;5003574;28;20291;-72
2020/12/26 10:44:02;;;;;;;15.90;12.05;;;2.70;1.00;;;;;;4977094;28;21250;-74
2020/12/26 10:46:29;;;;;;;19.45;13.88;;;2.70;1.00;;;;;;4995966;28;20293;-75
2020/12/26 10:48:55;;;;;;;15.30;11.90;;;2.80;1.00;;;;;;4986576;28;20228;-74
2020/12/26 10:51:22;;;;;;;17.08;11.57;;;2.70;1.00;;;;;;4994995;28;20228;-73
2020/12/26 10:53:48;;;;;;;19.45;15.20;;;2.80;1.00;;;;;;4982079;28;20211;-74
2020/12/26 10:56:15;;;;;;;19.35;13.43;;;2.80;1.00;;;;;;4992811;28;20226;-73
2020/12/26 10:58:42;;;;;;;18.42;14.18;;;2.80;1.00;;;;;;5001432;28;20284;-74
2020/12/26 11:01:08;;;;;;;18.67;14.10;;;2.80;1.00;;;;;;4990148;28;20282;-72
2020/12/26 11:03:34;;;;;;;19.65;13.18;;;2.90;1.00;;;;;;4998362;28;20216;-73
2020/12/26 11:06:01;;;;;;;17.63;13.50;;;2.90;1.00;;;;;;4978553;28;20253;-75
2020/12/26 11:08:27;;;;;;;18.08;13.25;;;2.90;1.00;;;;;;4997521;28;20239;-72
2020/12/26 11:10:53;;;;;;;20.25;14.93;;;2.90;1.00;;;;;;4979642;28;20334;-72
2020/12/26 11:13:20;;;;;;;18.38;13.80;;;2.90;1.00;;;;;;4988568;28;20226;-73
2020/12/26 11:15:47;;;;;;;20.02;14.00;;;2.90;1.00;;;;;;4974927;28;20347;-73
2020/12/26 11:18:13;;;;;;;21.65;14.57;;;2.80;1.00;;;;;;4987802;28;20350;-73
2020/12/26 11:20:39;;;;;;;24.27;14.80;;;2.70;1.00;;;;;;4972529;28;21039;-72
2020/12/26 11:23:05;;;;;;;22.83;16.55;;;2.70;1.00;;;;;;4988113;28;20291;-72
2020/12/26 11:25:31;;;;;;;28.10;15.80;;;2.70;1.00;;;;;;4970339;28;20250;-72
2020/12/26 11:27:58;;;;;;;17.58;14.18;;;2.60;1.00;;;;;;4987609;28;20417;-72
2020/12/26 11:30:25;;;;;;;21.88;14.75;;;2.50;1.00;;;;;;4974745;28;20288;-73
2020/12/26 11:32:51;;;;;;;19.88;13.32;;;2.50;1.00;;;;;;5005483;28;20705;-73
2020/12/26 11:35:18;;;;;;;13.85;10.85;;;2.40;1.00;;;;;;4991603;28;20633;-75
2020/12/26 11:37:44;;;;;;;15.70;11.98;;;2.30;1.00;;;;;;4978816;28;20258;-75
2020/12/26 11:40:10;;;;;;;19.60;12.90;;;2.20;1.00;;;;;;4988850;28;20226;-73
2020/12/26 11:42:39;;;;;;;15.80;12.35;;;2.20;1.00;;;;;;4982371;28;20235;-73
2020/12/26 11:45:06;;;;;;;15.93;11.52;;;2.10;1.00;;;;;;4985225;28;22362;-72
2020/12/26 11:47:33;;;;;;;12.55;9.85;;;2.00;1.00;;;;;;4978591;28;20220;-72
2020/12/26 11:50:00;;;;;;;14.35;11.18;;;2.00;1.00;;;;;;4986440;28;20252;-73
2020/12/26 11:52:26;;;;;;;16.08;10.60;;;2.00;1.00;;;;;;4982656;28;20235;-73
2020/12/26 11:54:52;;;;;;;12.52;9.90;;;2.00;1.00;;;;;;4991727;28;20593;-73
2020/12/26 11:57:18;;;;;;;14.25;9.57;;;1.80;1.00;;;;;;4972354;28;20292;-72
2020/12/26 11:59:45;;;;;;;10.07;8.48;;;1.90;1.00;;;;;;4990311;28;20226;-72
2020/12/26 12:02:12;;;;;;;16.17;10.25;;;1.90;1.00;;;;;;4975177;28;20235;-74
2020/12/26 12:04:39;;;;;;;12.00;9.05;;;1.90;1.00;;;;;;4991518;28;20266;-74
2020/12/26 12:07:05;;;;;;;13.32;10.77;;;1.80;1.00;;;;;;4978105;28;20224;-73
2020/12/26 12:09:32;;;;;;;11.98;9.57;;;1.80;1.00;;;;;;4991399;28;20924;-75
2020/12/26 12:11:58;;;;;;;12.63;9.05;;;1.80;1.00;;;;;;4975816;28;20231;-73
2020/12/26 12:14:24;;;;;;;11.63;9.43;;;1.80;1.00;;;;;;4996334;28;20231;-74
2020/12/26 12:16:50;;;;;;;12.07;10.73;;;1.80;1.00;;;;;;4987078;28;20227;-74
2020/12/26 12:19:17;;;;;;;13.23;9.77;;;1.80;1.00;;;;;;4973286;28;20232;-74
2020/12/26 12:21:45;;;;;;;14.32;10.35;;;1.90;1.00;;;;;;4988896;28;21160;-76
2020/12/26 12:24:11;;;;;;;13.82;10.20;;;2.00;1.00;;;;;;4977179;28;20228;-74
2020/12/26 12:26:39;;;;;;;11.88;8.63;;;1.90;1.00;;;;;;4993462;28;20374;-73
2020/12/26 12:29:05;;;;;;;12.23;9.85;;;2.00;1.00;;;;;;4976264;28;20227;-73
2020/12/26 12:31:36;;;;;;;15.30;9.63;;;2.00;1.00;;;;;;4995643;28;20235;-74
2020/12/26 12:34:03;;;;;;;12.27;9.95;;;2.00;1.00;;;;;;4977010;28;20220;-76
2020/12/26 12:36:29;;;;;;;12.63;10.43;;;2.00;1.00;;;;;;4990679;28;20234;-74
2020/12/26 12:38:56;;;;;;;13.57;12.05;;;2.10;1.00;;;;;;4966776;28;20229;-74
2020/12/26 12:41:22;;;;;;;13.00;10.57;;;2.20;1.00;;;;;;4990697;28;20689;-74
2020/12/26 12:43:49;;;;;;;15.50;10.32;;;2.20;1.00;;;;;;4977965;28;20295;-74
2020/12/26 12:46:15;;;;;;;13.23;10.32;;;2.20;1.00;;;;;;4989531;28;20263;-74
2020/12/26 12:48:42;;;;;;;15.02;10.32;;;2.20;1.00;;;;;;4975973;28;20223;-73
2020/12/26 12:51:08;;;;;;;13.77;11.50;;;2.20;1.00;;;;;;4985273;28;20748;-75
2020/12/26 12:53:35;;;;;;;11.55;10.35;;;2.30;1.00;;;;;;4980012;28;20227;-74
2020/12/26 12:56:02;;;;;;;12.63;11.05;;;2.30;1.00;;;;;;4985248;28;20238;-75
2020/12/26 12:58:28;;;;;;;13.38;9.95;;;2.30;1.00;;;;;;4982083;28;20227;-74
2020/12/26 13:00:54;;;;;;;14.23;10.73;;;2.40;1.00;;;;;;4959960;28;20237;-74